Time;durP1;ratioP1;P1;durP2;ratioP2;P2;SDS_P1;SDS_P2;PMS_P1;PMS_P2;Temp;Humidity;BMP_temperature;BMP_pressure;BME280_temperature;BME280_humidity;BME280_pressure;Samples;Min_cycle;Max_cycle;Signal;HPM_P1;HPM_P2
2021/01/27 00:00:23;;;;;;;;;83.00;61.50;;;;;-0.24;81.40;99432.00;5012469;28;8969;-52
2021/01/27 00:02:51;;;;;;;;;91.50;59.25;;;;;-0.43;82.28;99435.03;5014144;28;8835;-52
2021/01/27 00:05:25;;;;;;;;;66.75;46.25;;;;;-0.25;82.07;99442.56;5017169;28;8843;-52
2021/01/27 00:07:52;;;;;;;;;62.75;45.50;;;;;-0.28;81.56;99435.56;5017529;28;8990;-51
2021/01/27 00:10:19;;;;;;;;;57.50;40.50;;;;;-0.50;82.83;99440.44;5017006;28;8869;-54
2021/01/27 00:12:46;;;;;;;;;17.25;14.00;;;;;-0.42;82.92;99437.66;5016234;28;8847;-54
2021/01/27 00:15:28;;;;;;;;;58.50;41.75;;;;;-0.54;82.82;99435.25;5015904;28;8875;-52
2021/01/27 00:17:55;;;;;;;;;61.75;48.75;;;;;-0.49;83.21;99446.59;5015577;28;8831;-53
2021/01/27 00:20:25;;;;;;;;;70.50;52.00;;;;;-0.60;82.80;99451.22;5017033;28;8866;-52
2021/01/27 00:22:53;;;;;;;;;68.25;48.00;;;;;-0.75;83.40;99445.34;5016628;28;8890;-54
2021/01/27 00:25:30;;;;;;;;;63.50;47.75;;;;;-0.69;83.54;99447.84;5016743;28;8854;-55
2021/01/27 00:27:59;;;;;;;;;65.25;44.50;;;;;-0.82;84.30;99454.25;5005504;28;8869;-54
2021/01/27 00:30:31;;;;;;;;;63.50;48.00;;;;;-0.84;84.36;99456.06;5032052;28;8851;-53
2021/01/27 00:32:59;;;;;;;;;68.00;55.50;;;;;-0.99;84.56;99451.94;5026039;28;8922;-54
2021/01/27 00:35:32;;;;;;;;;73.50;51.00;;;;;-0.89;84.36;99457.91;5016065;28;8850;-53
2021/01/27 00:38:07;;;;;;;;;62.50;48.75;;;;;-0.91;85.12;99459.72;5015472;28;8862;-54
2021/01/27 00:40:34;;;;;;;;;57.00;35.50;;;;;-0.84;85.67;99463.09;5016278;28;8835;-54
2021/01/27 00:43:01;;;;;;;;;53.00;37.75;;;;;-0.93;84.75;99461.50;5015285;28;8831;-52
2021/01/27 00:45:28;;;;;;;;;34.75;27.50;;;;;-0.89;84.97;99458.78;5016127;28;8865;-51
2021/01/27 00:47:55;;;;;;;;;46.50;34.00;;;;;-0.91;84.73;99460.56;5016673;28;8933;-55
2021/01/27 00:50:22;;;;;;;;;45.50;33.25;;;;;-0.95;84.42;99461.53;5016154;28;8851;-54
2021/01/27 00:52:49;;;;;;;;;52.75;37.25;;;;;-1.24;85.00;99459.41;5016258;28;8892;-55
2021/01/27 00:55:25;;;;;;;;;50.75;35.50;;;;;-1.08;85.43;99461.78;5015758;28;8847;-54
2021/01/27 00:57:52;;;;;;;;;39.50;26.25;;;;;-1.05;85.60;99473.16;5015459;28;8870;-54
2021/01/27 01:00:29;;;;;;;;;47.00;34.00;;;;;-1.14;84.99;99463.63;5015481;28;8870;-51
2021/01/27 01:02:56;;;;;;;;;36.25;24.00;;;;;-1.18;84.70;99458.47;5015020;28;8838;-52
2021/01/27 01:05:44;;;;;;;;;47.00;38.00;;;;;-1.34;85.10;99447.31;5016105;28;8836;-52
2021/01/27 01:08:17;;;;;;;;;48.50;33.75;;;;;-1.20;85.10;99450.56;5015723;28;8839;-50
2021/01/27 01:10:52;;;;;;;;;49.00;32.50;;;;;-1.27;85.45;99445.44;5015326;28;8850;-54
2021/01/27 01:13:25;;;;;;;;;47.25;33.00;;;;;-1.30;84.97;99443.72;5014058;28;9532;-54
2021/01/27 01:15:53;;;;;;;;;41.00;27.75;;;;;-1.51;85.28;99447.59;5013405;28;8867;-54
2021/01/27 01:18:20;;;;;;;;;39.75;30.25;;;;;-1.38;84.86;99443.84;5015460;28;8970;-54
2021/01/27 01:20:48;;;;;;;;;42.25;33.50;;;;;-1.51;85.24;99444.09;5015289;28;8942;-51
2021/01/27 01:23:19;;;;;;;;;25.50;24.25;;;;;-1.55;85.34;99438.88;5015448;28;8869;-53
2021/01/27 01:25:47;;;;;;;;;35.75;26.75;;;;;-1.58;85.39;99436.31;5015044;28;8936;-52
2021/01/27 01:28:15;;;;;;;;;42.00;24.00;;;;;-1.50;85.79;99433.56;5015456;28;8870;-53
2021/01/27 01:30:46;;;;;;;;;38.50;28.50;;;;;-1.56;85.37;99434.50;5023811;28;8886;-56
2021/01/27 01:33:29;;;;;;;;;38.25;25.00;;;;;-1.32;85.40;99437.59;5014764;28;8925;-54
2021/01/27 01:35:57;;;;;;;;;28.00;24.75;;;;;-1.31;84.73;99436.72;5034847;28;8852;-55
2021/01/27 01:38:25;;;;;;;;;30.00;21.50;;;;;-1.36;84.81;99438.56;5010901;28;8858;-53
2021/01/27 01:40:59;;;;;;;;;26.50;21.75;;;;;-1.41;84.09;99438.63;5014595;28;8838;-55
2021/01/27 01:43:32;;;;;;;;;39.00;25.75;;;;;-1.61;85.07;99441.59;5004113;28;9606;-52
2021/01/27 01:46:15;;;;;;;;;34.50;24.25;;;;;-1.58;84.92;99440.66;5015643;28;8849;-54
2021/01/27 01:49:01;;;;;;;;;32.25;26.50;;;;;-1.72;85.23;99440.91;5007459;28;8874;-54
2021/01/27 01:51:32;;;;;;;;;24.00;21.00;;;;;-1.42;83.30;99436.03;5031160;28;8835;-54
2021/01/27 01:54:28;;;;;;;;;24.50;21.75;;;;;-1.52;83.64;99437.09;5015052;28;9572;-55
2021/01/27 01:57:04;;;;;;;;;29.25;20.25;;;;;-1.52;83.08;99445.84;5008453;28;8846;-52
2021/01/27 01:59:35;;;;;;;;;33.25;20.50;;;;;-1.69;83.47;99434.72;5014546;28;8835;-55
2021/01/27 02:02:07;;;;;;;;;28.50;20.75;;;;;-1.69;83.79;99438.22;5029723;28;8863;-55
2021/01/27 02:04:58;;;;;;;;;21.50;13.50;;;;;-1.39;82.30;99433.38;5014941;28;8839;-54
2021/01/27 02:07:26;;;;;;;;;30.25;19.50;;;;;-1.39;82.27;99438.63;5015212;28;9564;-54
2021/01/27 02:09:54;;;;;;;;;31.25;19.00;;;;;-1.55;82.81;99438.03;5015715;28;8924;-53
2021/01/27 02:13:07;;;;;;;;;35.25;25.75;;;;;-1.79;83.01;99447.16;5015073;28;8881;-53
2021/01/27 02:16:00;;;;;;;;;32.50;22.50;;;;;-1.66;82.36;99445.19;4999283;28;8850;-52
2021/01/27 02:19:20;;;;;;;;;26.50;19.25;;;;;-1.74;81.83;99433.94;5015039;28;8823;-56
2021/01/27 02:21:53;;;;;;;;;22.00;14.50;;;;;-1.87;82.54;99428.88;5015024;28;8865;-53
2021/01/27 02:24:44;;;;;;;;;24.50;16.50;;;;;-1.80;82.20;99429.63;5014674;28;8842;-54
2021/01/27 02:27:28;;;;;;;;;30.50;21.00;;;;;-1.84;81.87;99433.22;5014133;28;8973;-55
2021/01/27 02:30:36;;;;;;;;;21.50;20.50;;;;;-1.81;81.81;99433.16;5014725;28;8826;-52
2021/01/27 02:33:21;;;;;;;;;25.25;17.50;;;;;-1.95;81.95;99436.00;5013176;28;8851;-55
2021/01/27 02:35:53;;;;;;;;;33.75;21.00;;;;;-1.92;81.89;99437.69;5014193;28;8877;-55
2021/01/27 02:38:31;;;;;;;;;37.75;25.00;;;;;-1.80;82.96;99441.03;5029544;28;8898;-54
2021/01/27 02:41:17;;;;;;;;;27.75;25.25;;;;;-1.91;81.89;99449.97;5035262;28;8872;-56
2021/01/27 02:43:54;;;;;;;;;34.25;23.25;;;;;-1.77;82.42;99440.97;5003691;28;8839;-54
2021/01/27 02:46:52;;;;;;;;;42.00;31.50;;;;;-1.96;82.34;99444.78;5013002;28;8839;-54
2021/01/27 02:50:17;;;;;;;;;30.25;24.00;;;;;-2.00;82.82;99449.22;5013554;28;8830;-56
2021/01/27 02:52:57;;;;;;;;;45.50;32.50;;;;;-1.79;81.86;99444.50;5004669;28;8851;-53
2021/01/27 02:55:36;;;;;;;;;38.75;28.50;;;;;-2.05;82.57;99444.94;5013111;28;8981;-55
2021/01/27 02:58:14;;;;;;;;;34.00;24.25;;;;;-1.87;82.35;99454.28;5013843;28;9611;-54
2021/01/27 03:00:46;;;;;;;;;35.50;26.25;;;;;-2.20;82.29;99456.53;5029143;28;8857;-55
2021/01/27 03:03:21;;;;;;;;;20.25;18.75;;;;;-2.30;83.31;99460.16;5028832;28;8909;-55
2021/01/27 03:06:00;;;;;;;;;35.25;25.00;;;;;-2.18;83.54;99449.50;5013624;28;8827;-52
2021/01/27 03:08:31;;;;;;;;;43.00;27.25;;;;;-2.01;83.44;99451.88;5013513;28;8815;-56
2021/01/27 03:11:22;;;;;;;;;38.25;27.00;;;;;-2.17;82.94;99452.97;4993529;28;8968;-53
2021/01/27 03:13:49;;;;;;;;;37.25;27.50;;;;;-1.87;82.85;99451.66;5001734;28;8831;-53
2021/01/27 03:16:28;;;;;;;;;34.75;23.50;;;;;-2.04;82.95;99452.78;5013024;28;9066;-53
2021/01/27 03:19:37;;;;;;;;;34.00;24.50;;;;;-2.08;82.79;99461.63;5028915;28;8843;-53
2021/01/27 03:22:19;;;;;;;;;38.50;28.50;;;;;-2.04;83.85;99452.78;5014785;28;8858;-54
2021/01/27 03:25:02;;;;;;;;;147.75;114.25;;;;;-2.12;83.38;99467.81;5029193;28;8839;-52
2021/01/27 03:27:38;;;;;;;;;56.50;41.25;;;;;-2.18;83.20;99456.53;5012719;28;8851;-56
2021/01/27 03:30:12;;;;;;;;;57.75;39.50;;;;;-1.98;83.21;99455.31;5012291;28;8853;-53
2021/01/27 03:33:13;;;;;;;;;74.50;50.75;;;;;-2.16;83.96;99452.94;5011565;28;8823;-54
2021/01/27 03:35:47;;;;;;;;;51.25;39.25;;;;;-1.96;83.43;99454.44;5012387;28;8859;-54
2021/01/27 03:38:36;;;;;;;;;41.50;24.50;;;;;-2.02;83.32;99456.28;5012830;28;8877;-55
2021/01/27 03:41:29;;;;;;;;;37.75;27.50;;;;;-2.34;84.48;99456.72;5012796;28;8875;-55
2021/01/27 03:44:13;;;;;;;;;34.00;21.00;;;;;-2.36;85.21;99455.88;5013059;28;8827;-56
2021/01/27 03:47:04;;;;;;;;;31.25;20.75;;;;;-2.37;85.14;99461.13;5017386;28;8853;-54
2021/01/27 03:49:38;;;;;;;;;31.50;22.50;;;;;-2.45;85.16;99456.84;5012138;28;8871;-54
2021/01/27 03:52:22;;;;;;;;;30.00;24.25;;;;;-2.23;84.51;99459.19;5013039;28;8843;-55
2021/01/27 03:55:00;;;;;;;;;29.75;21.25;;;;;-2.47;85.39;99455.13;5012248;28;9595;-54
2021/01/27 03:57:36;;;;;;;;;30.00;19.00;;;;;-2.49;84.97;99454.28;5028971;28;8847;-55
2021/01/27 04:00:11;;;;;;;;;35.75;18.50;;;;;-2.56;85.49;99458.72;5027909;28;8855;-54
2021/01/27 04:02:38;;;;;;;;;27.75;19.00;;;;;-2.64;86.28;99457.97;5013127;28;8866;-56
2021/01/27 04:05:06;;;;;;;;;26.50;19.00;;;;;-2.59;85.64;99452.66;5013512;28;8855;-55
2021/01/27 04:07:33;;;;;;;;;34.75;24.00;;;;;-2.57;84.93;99457.00;5013237;28;8882;-54
2021/01/27 04:10:00;;;;;;;;;31.50;21.50;;;;;-2.64;85.82;99460.59;5013234;28;9551;-57
2021/01/27 04:12:27;;;;;;;;;27.25;24.25;;;;;-2.74;86.13;99458.94;5013525;28;8847;-56
2021/01/27 04:14:54;;;;;;;;;33.25;22.00;;;;;-2.65;85.63;99461.47;5012685;28;8839;-55
2021/01/27 04:17:30;;;;;;;;;39.50;29.50;;;;;-2.53;85.03;99460.44;5011934;28;8839;-55
2021/01/27 04:19:59;;;;;;;;;21.25;13.00;;;;;-2.46;84.61;99455.09;5025470;28;8908;-56
2021/01/27 04:22:26;;;;;;;;;33.75;23.50;;;;;-2.67;85.79;99448.34;4993777;28;8834;-56
2021/01/27 04:24:53;;;;;;;;;26.50;19.00;;;;;-2.63;85.96;99449.19;4993518;28;8880;-54
2021/01/27 04:27:20;;;;;;;;;30.50;26.00;;;;;-2.51;85.03;99456.91;4993620;28;8838;-53
2021/01/27 04:29:47;;;;;;;;;40.25;30.00;;;;;-2.69;85.54;99452.75;5005567;28;9049;-54
2021/01/27 04:32:14;;;;;;;;;32.50;23.00;;;;;-2.77;85.57;99454.59;5013257;28;8838;-53
2021/01/27 04:34:41;;;;;;;;;30.00;21.00;;;;;-2.69;85.88;99462.38;5012557;28;8877;-52
2021/01/27 04:37:08;;;;;;;;;28.50;21.75;;;;;-2.51;85.55;99462.16;5012848;28;8876;-55
2021/01/27 04:39:35;;;;;;;;;37.75;27.50;;;;;-2.42;84.51;99461.22;5014738;28;8855;-53
2021/01/27 04:42:03;;;;;;;;;31.75;23.00;;;;;-2.55;85.51;99465.75;5012302;28;8941;-54
2021/01/27 04:44:30;;;;;;;;;38.50;25.50;;;;;-2.48;85.30;99466.53;5013060;28;8851;-54
2021/01/27 04:47:41;;;;;;;;;34.25;24.25;;;;;-2.43;84.93;99464.72;5011784;28;8843;-53
2021/01/27 04:50:55;;;;;;;;;37.75;26.00;;;;;-2.83;86.17;99473.06;5015688;28;8909;-53
2021/01/27 04:53:32;;;;;;;;;35.25;27.00;;;;;-2.64;84.77;99471.09;4992391;28;8861;-54
2021/01/27 04:56:07;;;;;;;;;50.75;38.00;;;;;-2.72;85.50;99473.81;5015797;28;8975;-53
2021/01/27 04:58:43;;;;;;;;;35.25;19.50;;;;;-2.74;86.03;99485.22;5031136;28;8839;-53
2021/01/27 05:01:58;;;;;;;;;43.50;31.00;;;;;-2.64;86.14;99471.09;5016400;28;8861;-55
2021/01/27 05:04:56;;;;;;;;;61.50;37.50;;;;;-2.68;85.95;99483.41;4980038;28;8867;-54
2021/01/27 05:08:00;;;;;;;;;51.75;37.00;;;;;-2.66;85.90;99479.00;5016159;28;8851;-54
2021/01/27 05:10:44;;;;;;;;;55.00;41.75;;;;;-2.78;85.71;99488.78;5016096;28;8877;-54
2021/01/27 05:13:38;;;;;;;;;75.00;49.00;;;;;-2.67;85.97;99492.16;5016206;28;8839;-53
2021/01/27 05:16:14;;;;;;;;;53.00;34.25;;;;;-2.68;85.42;99485.16;5008768;28;8881;-54
2021/01/27 05:18:43;;;;;;;;;54.00;41.00;;;;;-2.80;85.88;99490.56;4998007;28;8846;-54
2021/01/27 05:21:32;;;;;;;;;43.75;28.00;;;;;-2.89;86.56;99497.66;5015692;28;8851;-54
2021/01/27 05:24:00;;;;;;;;;50.50;34.00;;;;;-2.87;86.43;99489.72;5015363;28;8823;-53
2021/01/27 05:26:57;;;;;;;;;49.00;37.75;;;;;-2.71;87.31;99500.97;5016114;28;8835;-54
2021/01/27 05:29:33;;;;;;;;;53.50;38.00;;;;;-2.71;86.12;99495.72;5014616;28;8859;-51
2021/01/27 05:32:18;;;;;;;;;44.00;30.00;;;;;-2.71;85.42;99500.97;5015488;28;8885;-55
2021/01/27 05:34:57;;;;;;;;;42.75;30.75;;;;;-2.41;86.06;99491.00;5015956;28;8851;-55
2021/01/27 05:37:29;;;;;;;;;32.00;23.75;;;;;-2.41;85.27;99493.63;5015636;28;8866;-55
2021/01/27 05:40:15;;;;;;;;;35.00;24.25;;;;;-2.19;84.61;99500.31;5030590;28;8855;-57
2021/01/27 05:42:43;;;;;;;;;43.25;31.50;;;;;-2.33;84.80;99491.75;5014042;28;8841;-55
2021/01/27 05:45:38;;;;;;;;;37.25;28.50;;;;;-2.49;85.32;99489.31;5030793;28;8957;-54
2021/01/27 05:48:35;;;;;;;;;40.50;31.00;;;;;-2.57;84.66;99485.91;5014770;28;8953;-54
2021/01/27 05:51:02;;;;;;;;;39.75;26.25;;;;;-2.60;84.99;99485.94;5015298;28;8870;-54
2021/01/27 05:53:32;;;;;;;;;46.75;30.25;;;;;-2.47;85.05;99490.16;5015642;28;8831;-56
2021/01/27 05:56:15;;;;;;;;;37.00;25.00;;;;;-2.73;85.91;99486.97;5015118;28;8858;-54
2021/01/27 05:59:05;;;;;;;;;41.25;30.00;;;;;-2.65;85.58;99485.13;5030047;28;8851;-55
2021/01/27 06:01:46;;;;;;;;;35.25;29.75;;;;;-2.47;85.58;99476.16;5030102;28;8851;-54
2021/01/27 06:04:15;;;;;;;;;41.00;30.25;;;;;-2.58;86.42;99478.03;5014713;28;8862;-56
2021/01/27 06:06:55;;;;;;;;;50.75;35.50;;;;;-2.66;85.63;99478.13;5014020;28;9618;-54
2021/01/27 06:09:40;;;;;;;;;43.00;28.75;;;;;-2.46;86.07;99480.53;5030779;28;8831;-55
2021/01/27 06:12:14;;;;;;;;;31.00;26.00;;;;;-2.47;85.67;99479.66;5015327;28;8858;-55
2021/01/27 06:14:41;;;;;;;;;40.75;24.75;;;;;-1.99;85.62;99487.78;5015436;28;8838;-54
2021/01/27 06:17:24;;;;;;;;;38.75;29.50;;;;;-2.21;85.20;99489.84;5014159;28;9727;-54
2021/01/27 06:20:15;;;;;;;;;33.50;29.00;;;;;-1.72;86.03;99485.66;5014088;28;8950;-56
2021/01/27 06:22:55;;;;;;;;;37.25;30.25;;;;;-1.64;85.31;99485.53;5014854;28;8851;-56
2021/01/27 06:25:39;;;;;;;;;49.00;32.75;;;;;-1.62;85.62;99492.50;5014980;28;8835;-56
2021/01/27 06:28:30;;;;;;;;;46.00;30.75;;;;;-1.92;85.10;99487.69;5030641;28;8941;-56
2021/01/27 06:31:31;;;;;;;;;57.00;33.50;;;;;-2.07;84.28;99500.19;5013745;28;8823;-56
2021/01/27 06:34:33;;;;;;;;;40.75;30.25;;;;;-2.08;83.55;99505.44;4994606;28;8862;-56
2021/01/27 06:38:01;;;;;;;;;35.50;30.50;;;;;-1.90;83.43;99501.69;5013801;28;8847;-57
2021/01/27 06:40:31;;;;;;;;;50.75;34.00;;;;;-1.47;80.86;99491.41;5029334;28;8849;-56
2021/01/27 06:43:25;;;;;;;;;36.50;27.50;;;;;-1.56;81.41;99497.66;5014264;28;8835;-55
2021/01/27 06:46:23;;;;;;;;;44.50;37.50;;;;;-1.99;82.97;99497.44;5002427;28;8851;-56
2021/01/27 06:49:47;;;;;;;;;48.25;32.25;;;;;-1.84;83.23;99494.59;5013072;28;8843;-56
2021/01/27 06:52:47;;;;;;;;;41.25;28.25;;;;;-0.74;79.66;99497.19;4953900;28;8876;-56
2021/01/27 06:55:34;;;;;;;;;42.25;29.00;;;;;-0.86;79.35;99489.47;5014382;28;8819;-55
2021/01/27 06:58:38;;;;;;;;;40.75;32.00;;;;;-0.63;78.31;99490.78;5009714;28;8833;-52
2021/01/27 07:01:42;;;;;;;;;45.75;34.50;;;;;0.05;76.27;99496.41;5017085;28;8847;-54
2021/01/27 07:04:37;;;;;;;;;55.00;35.00;;;;;0.21;74.63;99497.84;5026616;28;8856;-54
2021/01/27 07:07:35;;;;;;;;;42.75;33.50;;;;;1.45;70.54;99493.84;5030226;28;8858;-52
2021/01/27 07:10:49;;;;;;;;;45.75;35.75;;;;;2.32;69.21;99498.38;5012771;28;8950;-56
2021/01/27 07:13:57;;;;;;;;;44.50;29.00;;;;;2.41;67.21;99489.25;5004131;28;8850;-56
2021/01/27 07:16:58;;;;;;;;;43.25;31.75;;;;;2.17;68.04;99496.19;5026782;28;8874;-56
2021/01/27 07:19:49;;;;;;;;;53.00;34.00;;;;;1.85;68.39;99498.00;5032935;28;8832;-54
2021/01/27 07:22:33;;;;;;;;;47.50;38.00;;;;;1.89;69.65;99502.28;5032886;28;9570;-56
2021/01/27 07:25:12;;;;;;;;;49.25;38.50;;;;;0.83;72.52;99496.38;5032538;28;8859;-54
2021/01/27 07:28:11;;;;;;;;;55.50;44.75;;;;;0.67;72.78;99495.88;5033106;28;8861;-58
2021/01/27 07:30:55;;;;;;;;;53.00;38.50;;;;;-0.63;78.07;99496.97;5033284;28;8853;-57
2021/01/27 07:33:40;;;;;;;;;53.75;41.50;;;;;-0.81;80.41;99492.91;5048991;28;8836;-57
2021/01/27 07:36:50;;;;;;;;;64.50;45.00;;;;;-1.07;81.62;99489.88;5033071;28;8860;-55
2021/01/27 07:40:00;;;;;;;;;66.50;45.00;;;;;-1.03;81.58;99486.28;5013723;28;8855;-56
2021/01/27 07:42:49;;;;;;;;;61.00;41.00;;;;;-0.76;80.65;99491.06;5029211;28;8854;-53
2021/01/27 07:45:38;;;;;;;;;60.50;47.50;;;;;-0.75;80.79;99487.50;5013223;28;8973;-55
2021/01/27 07:48:32;;;;;;;;;57.25;45.50;;;;;-0.59;81.00;99484.59;5013976;28;8915;-55
2021/01/27 07:51:11;;;;;;;;;65.75;39.00;;;;;-0.40;80.15;99485.94;5013258;28;8834;-57
2021/01/27 07:54:13;;;;;;;;;49.00;38.75;;;;;-0.20;79.45;99492.59;5013956;28;8962;-57
2021/01/27 07:56:54;;;;;;;;;64.25;41.25;;;;;-0.13;79.42;99483.63;5012659;28;8866;-53
2021/01/27 07:59:45;;;;;;;;;43.00;35.75;;;;;-0.08;78.75;99487.03;5013841;28;9582;-54
2021/01/27 08:02:23;;;;;;;;;51.00;43.25;;;;;-0.01;79.05;99492.16;5012047;28;9588;-54
2021/01/27 08:05:02;;;;;;;;;54.75;44.00;;;;;0.17;78.71;99485.59;5031983;28;8931;-52
2021/01/27 08:07:40;;;;;;;;;53.50;44.50;;;;;0.17;78.04;99485.59;5012310;28;8855;-54
2021/01/27 08:10:33;;;;;;;;;47.75;37.75;;;;;0.29;78.26;99479.19;5028339;28;8917;-56
2021/01/27 08:13:27;;;;;;;;;48.50;40.25;;;;;0.57;77.56;99487.31;5028705;28;8857;-53
2021/01/27 08:16:25;;;;;;;;;48.50;39.50;;;;;0.75;78.17;99482.47;5009333;28;9340;-55
2021/01/27 08:19:11;;;;;;;;;49.00;34.00;;;;;0.80;77.05;99480.59;5013105;28;8839;-56
2021/01/27 08:21:51;;;;;;;;;54.75;35.00;;;;;0.73;75.71;99482.50;5012004;28;8846;-55
2021/01/27 08:24:36;;;;;;;;;46.75;39.50;;;;;0.76;76.55;99484.22;5009356;28;8835;-57
2021/01/27 08:27:16;;;;;;;;;57.00;39.25;;;;;0.77;75.64;99481.53;4996969;28;8992;-56
2021/01/27 08:29:55;;;;;;;;;49.50;41.25;;;;;1.04;74.49;99490.53;4997589;28;8829;-55
2021/01/27 08:32:23;;;;;;;;;50.50;33.50;;;;;1.13;74.43;99478.84;5010890;28;8831;-53
2021/01/27 08:34:55;;;;;;;;;52.25;42.75;;;;;1.04;75.23;99477.31;5016335;28;8872;-54
2021/01/27 08:37:40;;;;;;;;;44.00;30.50;;;;;1.21;74.36;99476.00;5016076;28;8859;-54
2021/01/27 08:40:30;;;;;;;;;52.00;43.00;;;;;1.33;74.19;99474.81;5015262;28;8847;-52
2021/01/27 08:43:05;;;;;;;;;56.00;42.75;;;;;1.36;74.19;99480.88;5032116;28;9788;-56
2021/01/27 08:45:34;;;;;;;;;50.75;37.50;;;;;1.39;73.79;99486.06;5014857;28;8834;-55
2021/01/27 08:48:05;;;;;;;;;56.75;46.00;;;;;1.58;74.20;99494.38;5015370;28;8949;-53
2021/01/27 08:50:54;;;;;;;;;50.50;38.00;;;;;1.75;72.87;99494.75;5032542;28;8838;-54
2021/01/27 08:53:27;;;;;;;;;77.50;54.00;;;;;1.87;72.13;99504.13;5015480;28;8918;-52
2021/01/27 08:55:58;;;;;;;;;71.50;47.25;;;;;2.09;71.43;99503.50;5015997;28;8918;-54
2021/01/27 08:58:35;;;;;;;;;41.50;22.00;;;;;2.01;71.13;99505.50;5032014;28;8855;-54
2021/01/27 09:01:21;;;;;;;;;70.00;46.75;;;;;2.01;72.08;99502.88;5016390;28;8855;-55
2021/01/27 09:03:52;;;;;;;;;55.50;43.50;;;;;2.25;72.60;99496.81;5016468;28;8855;-55
2021/01/27 09:06:22;;;;;;;;;70.25;47.50;;;;;2.26;70.90;99510.91;5016174;28;8846;-52
2021/01/27 09:08:49;;;;;;;;;55.00;42.75;;;;;2.40;72.13;99496.34;5015768;28;8835;-56
2021/01/27 09:11:20;;;;;;;;;61.00;43.75;;;;;2.15;71.09;99509.47;5015841;28;8923;-55
2021/01/27 09:13:47;;;;;;;;;47.00;40.00;;;;;2.21;71.21;99503.09;5015272;28;8876;-52
2021/01/27 09:16:23;;;;;;;;;72.50;46.50;;;;;2.30;71.11;99500.19;5016041;28;8958;-53
2021/01/27 09:19:17;;;;;;;;;67.00;44.50;;;;;2.49;70.55;99496.97;5015357;28;9622;-53
2021/01/27 09:22:05;;;;;;;;;63.25;46.25;;;;;2.57;70.31;99487.00;5008489;28;8859;-54
2021/01/27 09:24:58;;;;;;;;;52.50;39.75;;;;;2.49;69.16;99502.25;5015467;28;8811;-57
2021/01/27 09:27:32;;;;;;;;;54.50;34.75;;;;;2.42;69.60;99494.53;5013680;28;8871;-54
2021/01/27 09:30:13;;;;;;;;;40.75;31.00;;;;;2.45;69.21;99497.97;5016750;28;8929;-54
2021/01/27 09:32:41;;;;;;;;;29.50;28.00;;;;;2.46;69.52;99499.72;5015239;28;8847;-54
2021/01/27 09:35:22;;;;;;;;;30.00;25.50;;;;;2.52;70.29;99489.78;5014865;28;8874;-52
2021/01/27 09:38:02;;;;;;;;;39.00;25.00;;;;;2.41;68.76;99491.91;5015192;28;8846;-54
2021/01/27 09:40:44;;;;;;;;;31.25;22.75;;;;;2.55;69.30;99480.84;5015804;28;8826;-54
2021/01/27 09:43:16;;;;;;;;;37.50;31.25;;;;;2.89;71.77;99479.75;5015114;28;8823;-53
2021/01/27 09:45:50;;;;;;;;;16.75;15.75;;;;;2.66;69.49;99483.16;5015774;28;8878;-53
2021/01/27 09:48:23;;;;;;;;;41.75;30.25;;;;;2.95;67.88;99476.88;5015137;28;8917;-53
2021/01/27 09:50:58;;;;;;;;;39.75;27.75;;;;;2.96;68.31;99473.34;5015663;28;8950;-50
2021/01/27 09:53:35;;;;;;;;;37.75;26.50;;;;;3.09;68.20;99466.69;5014966;28;8927;-55
2021/01/27 09:56:04;;;;;;;;;33.25;28.00;;;;;2.89;68.09;99470.00;5043933;28;8840;-55
2021/01/27 09:58:31;;;;;;;;;32.00;27.75;;;;;2.74;67.92;99476.72;5015148;28;8857;-52
2021/01/27 10:01:04;;;;;;;;;45.25;35.50;;;;;2.80;66.40;99470.34;5016375;28;8860;-55
2021/01/27 10:03:40;;;;;;;;;48.00;38.25;;;;;2.68;67.36;99466.28;5011171;28;8832;-51
2021/01/27 10:06:39;;;;;;;;;30.25;24.25;;;;;3.04;65.54;99469.50;4995224;28;8846;-53
2021/01/27 10:09:15;;;;;;;;;58.50;40.75;;;;;2.79;67.32;99466.81;5011221;28;9025;-52
2021/01/27 10:11:44;;;;;;;;;24.50;22.25;;;;;3.04;66.86;99463.34;4995581;28;8854;-54
2021/01/27 10:14:20;;;;;;;;;34.25;28.25;;;;;3.03;66.40;99465.13;4998009;28;8956;-53
2021/01/27 10:16:58;;;;;;;;;23.50;23.00;;;;;3.39;65.66;99464.72;5014841;28;8819;-51
2021/01/27 10:19:32;;;;;;;;;34.00;23.25;;;;;3.48;66.14;99468.88;5014583;28;8847;-50
2021/01/27 10:22:03;;;;;;;;;39.25;31.25;;;;;3.14;66.19;99467.41;5022941;28;8876;-54
2021/01/27 10:24:48;;;;;;;;;38.75;29.25;;;;;3.19;65.19;99470.75;5014915;28;9569;-53
2021/01/27 10:27:40;;;;;;;;;32.00;28.75;;;;;3.54;65.33;99463.31;5014156;28;8847;-52
2021/01/27 10:30:17;;;;;;;;;28.25;24.00;;;;;3.25;64.59;99467.88;5014215;28;8830;-51
2021/01/27 10:32:45;;;;;;;;;39.00;27.00;;;;;3.55;64.46;99462.38;5014479;28;8831;-52
2021/01/27 10:35:22;;;;;;;;;38.75;30.00;;;;;3.36;64.26;99462.19;5015059;28;8835;-53
2021/01/27 10:38:14;;;;;;;;;36.75;26.25;;;;;3.63;65.08;99459.44;5013824;28;9061;-56
2021/01/27 10:41:24;;;;;;;;;51.00;36.50;;;;;3.81;64.44;99469.38;5033376;28;8999;-50
2021/01/27 10:43:51;;;;;;;;;30.75;25.00;;;;;3.64;64.11;99470.03;4981654;28;8958;-54
2021/01/27 10:46:36;;;;;;;;;31.00;23.75;;;;;3.63;63.98;99478.91;4990646;28;8857;-54
2021/01/27 10:49:03;;;;;;;;;28.25;23.75;;;;;3.90;64.38;99465.53;4994365;28;8865;-54
2021/01/27 10:51:30;;;;;;;;;26.75;20.75;;;;;3.51;63.51;99466.09;4995040;28;8932;-52
2021/01/27 10:53:57;;;;;;;;;36.00;27.50;;;;;3.70;63.59;99468.94;4993677;28;8860;-50
2021/01/27 10:56:24;;;;;;;;;39.50;26.50;;;;;3.25;63.98;99465.22;5009776;28;8871;-51
2021/01/27 10:58:51;;;;;;;;;26.00;22.00;;;;;3.26;64.25;99472.25;5008295;28;8865;-52
2021/01/27 11:01:18;;;;;;;;;29.25;24.50;;;;;3.27;62.99;99466.03;5013137;28;8893;-55
2021/01/27 11:03:46;;;;;;;;;34.00;21.75;;;;;2.99;64.73;99475.88;5025404;28;8842;-55
2021/01/27 11:06:13;;;;;;;;;37.50;27.50;;;;;3.15;64.30;99471.78;5029755;28;8833;-55
2021/01/27 11:08:43;;;;;;;;;39.75;30.25;;;;;2.73;65.84;99461.72;5020270;28;8853;-55
2021/01/27 11:11:11;;;;;;;;;30.50;23.00;;;;;3.12;64.80;99465.72;5028069;28;8853;-55
2021/01/27 11:13:39;;;;;;;;;31.00;27.50;;;;;3.10;64.81;99462.25;5013391;28;8846;-54
2021/01/27 11:16:08;;;;;;;;;24.00;20.00;;;;;3.12;64.65;99461.28;5028820;28;8859;-54
2021/01/27 11:18:35;;;;;;;;;35.25;26.25;;;;;3.54;64.31;99468.63;5013596;28;8954;-54
2021/01/27 11:21:06;;;;;;;;;32.50;25.00;;;;;3.57;63.50;99467.66;5013955;28;8854;-54
2021/01/27 11:23:34;;;;;;;;;31.00;25.50;;;;;3.55;63.68;99465.03;5014593;28;8828;-54
2021/01/27 11:26:01;;;;;;;;;35.75;22.75;;;;;3.46;63.55;99468.03;5013678;28;8857;-50
2021/01/27 11:28:29;;;;;;;;;29.00;22.00;;;;;3.40;64.71;99470.94;4994878;28;8933;-52
2021/01/27 11:30:57;;;;;;;;;37.25;28.25;;;;;3.36;66.52;99466.63;5009638;28;8873;-51
2021/01/27 11:33:25;;;;;;;;;37.50;30.75;;;;;3.21;64.39;99460.06;4994309;28;8841;-51
2021/01/27 11:35:53;;;;;;;;;44.50;29.75;;;;;3.45;66.41;99453.03;4994258;28;8858;-50
2021/01/27 11:38:21;;;;;;;;;37.50;29.50;;;;;3.35;64.64;99455.16;5007359;28;8961;-51
2021/01/27 11:40:49;;;;;;;;;41.25;25.25;;;;;3.37;63.98;99447.13;5013671;28;8839;-53
2021/01/27 11:43:17;;;;;;;;;54.50;38.75;;;;;3.38;63.40;99451.53;5013083;28;8957;-54
2021/01/27 11:45:44;;;;;;;;;63.50;45.25;;;;;3.61;63.93;99448.06;5013769;28;8847;-55
2021/01/27 11:48:32;;;;;;;;;49.75;38.75;;;;;3.30;63.83;99444.72;5013529;28;8843;-53
2021/01/27 11:50:59;;;;;;;;;47.00;33.25;;;;;3.42;63.75;99458.44;5012405;28;8933;-55
2021/01/27 11:53:27;;;;;;;;;40.50;28.50;;;;;3.33;63.38;99443.72;5013271;28;8859;-54
2021/01/27 11:55:54;;;;;;;;;47.50;32.25;;;;;3.27;63.64;99444.81;5012716;28;9626;-53
2021/01/27 11:58:20;;;;;;;;;35.50;28.50;;;;;3.17;63.69;99459.34;5012872;28;8851;-56
2021/01/27 12:00:48;;;;;;;;;35.00;29.25;;;;;3.36;63.03;99445.41;5013030;28;8885;-54
2021/01/27 12:03:15;;;;;;;;;48.25;44.75;;;;;3.15;63.79;99444.38;5013696;28;8917;-54
2021/01/27 12:05:44;;;;;;;;;60.75;45.50;;;;;3.37;63.79;99449.78;5011478;28;8847;-55
2021/01/27 12:08:11;;;;;;;;;27.25;21.25;;;;;3.25;63.73;99444.00;5012798;28;8835;-55
2021/01/27 12:10:38;;;;;;;;;29.25;23.25;;;;;3.36;63.14;99440.09;5013318;28;8858;-54
2021/01/27 12:13:05;;;;;;;;;48.75;33.50;;;;;3.47;63.10;99440.56;5013531;28;9576;-53
2021/01/27 12:15:32;;;;;;;;;30.25;25.50;;;;;3.51;62.81;99442.19;5013053;28;8854;-54
2021/01/27 12:17:59;;;;;;;;;35.50;21.00;;;;;3.85;61.33;99440.94;5013232;28;8854;-52
2021/01/27 12:20:27;;;;;;;;;34.75;24.50;;;;;4.04;62.88;99435.78;5012136;28;8871;-54
2021/01/27 12:22:56;;;;;;;;;36.25;28.00;;;;;4.09;62.22;99441.78;5012973;28;8967;-53